Norrskar — SGFD — position and weather

sailwx.info

Track history (hours):
 
Tides and Currents Weather Stations Pressure Air Temp Water Temp Dewpoint Dewpoint Depression Visibility Wind Speed Wind Dir Waves Ship Positions

Norrskar

Last reported at 2015-Aug-31 00:33 UTC. Time now 2015-Aug-31 00:41 UTC.
Position N 59°20' E 018°05'.

Length 35 m; draft 3 m.

Type: Passenger vessel. MMSI: 265522430.

Date/timePositionNaut miles runAvg speedWind from/ knotsBaromVisibWave heightAir tempDewpointWater temp
2015-Aug-31 00:33N 59°20' E 018°05'0 0.0
2015-Aug-30 23:33N 59°20' E 018°05'0 0.0
2015-Aug-30 22:32N 59°20' E 018°05'0 0.0
2015-Aug-30 21:33N 59°20' E 018°05'0 0.0
2015-Aug-30 20:33N 59°20' E 018°05'0 0.0
2015-Aug-30 19:33N 59°20' E 018°05'0 0.0
2015-Aug-30 18:22N 59°20' E 018°05'0 0.0
2015-Aug-30 17:33N 59°20' E 018°05'0 0.0
2015-Aug-30 16:33N 59°20' E 018°05'3 0.6
2015-Aug-30 11:22N 59°19' E 018°10'3 3.3
2015-Aug-30 10:27N 59°20' E 018°05'0 0.0
2015-Aug-30 09:33N 59°20' E 018°05'0 0.0
2015-Aug-30 08:29N 59°20' E 018°05'0 0.0
2015-Aug-29 21:28N 59°20' E 018°05'0 0.0
2015-Aug-29 20:31N 59°20' E 018°05'0 0.0
2015-Aug-29 19:27N 59°20' E 018°05'0 0.0
2015-Aug-29 18:33N 59°20' E 018°05'0 0.0
2015-Aug-29 17:30N 59°20' E 018°05'0 0.0
2015-Aug-29 16:21N 59°20' E 018°05'0 0.0
2015-Aug-29 15:33N 59°20' E 018°05'3 1.3
2015-Aug-29 13:31N 59°19' E 018°10'1 0.2
2015-Aug-29 08:23N 59°20' E 018°11'3 3.9
2015-Aug-29 07:32N 59°20' E 018°05'0 0.0
2015-Aug-29 06:33N 59°20' E 018°05'0 0.0
2015-Aug-29 05:33N 59°20' E 018°05'0 0.0
2015-Aug-29 04:33N 59°20' E 018°05'0 0.0
2015-Aug-29 03:33N 59°20' E 018°05'0 0.0
2015-Aug-29 02:33N 59°20' E 018°05'0 0.0
2015-Aug-29 01:33N 59°20' E 018°05'0 0.0
2015-Aug-29 00:33N 59°20' E 018°05'0 0.0
2015-Aug-28 23:33N 59°20' E 018°05'0 0.0
2015-Aug-28 22:33N 59°20' E 018°05'0 0.0
2015-Aug-28 21:33N 59°20' E 018°05'0 0.0
2015-Aug-28 20:33N 59°20' E 018°05'3 2.7
2015-Aug-28 19:29N 59°19' E 018°10'1 0.2
2015-Aug-28 16:32N 59°19' E 018°09'2 2.4
2015-Aug-28 15:33N 59°20' E 018°05'0 0.0
2015-Aug-28 14:33N 59°20' E 018°05'0 0.0
2015-Aug-28 13:31N 59°20' E 018°05'0 0.0
2015-Aug-28 12:32N 59°20' E 018°05'0 0.0
2015-Aug-28 11:33N 59°20' E 018°05'0 0.0
2015-Aug-28 10:32N 59°20' E 018°05'0 0.0
2015-Aug-28 09:33N 59°20' E 018°05'0 0.0
2015-Aug-28 08:25N 59°20' E 018°05'0 0.0
2015-Aug-28 07:33N 59°20' E 018°05'0 0.0
2015-Aug-28 06:11N 59°20' E 018°05'0 0.0
2015-Aug-28 05:27N 59°20' E 018°05'0 0.0
2015-Aug-28 04:33N 59°20' E 018°05'0 0.0
2015-Aug-28 03:20N 59°20' E 018°05'0 0.0
2015-Aug-28 00:22N 59°20' E 018°05'0 0.0
2015-Aug-27 23:25N 59°20' E 018°05'0 0.0
2015-Aug-27 21:22N 59°20' E 018°05'0 0.0
2015-Aug-27 20:24N 59°20' E 018°05'2 2.6
2015-Aug-27 19:33N 59°19' E 018°09'0 0.1
2015-Aug-27 16:33N 59°19' E 018°09'2 2.4
2015-Aug-27 15:31N 59°20' E 018°05'0 0.0
2015-Aug-27 14:34N 59°20' E 018°05'0 0.0
2015-Aug-27 13:33N 59°20' E 018°05'0 0.0
2015-Aug-27 12:32N 59°20' E 018°05'0 0.0
2015-Aug-27 10:26N 59°20' E 018°05'0 0.0
2015-Aug-27 09:34N 59°20' E 018°05'0 0.0
2015-Aug-27 08:33N 59°20' E 018°05'0 0.0
2015-Aug-27 07:08N 59°20' E 018°05'0 0.0
2015-Aug-27 06:27N 59°20' E 018°05'0 0.0
2015-Aug-27 05:31N 59°20' E 018°05'0 0.0
2015-Aug-27 04:32N 59°20' E 018°05'0 0.0
2015-Aug-27 03:32N 59°20' E 018°05'0 0.0
2015-Aug-27 01:31N 59°20' E 018°05'0 0.0
2015-Aug-26 21:20N 59°20' E 018°05'0 0.0
2015-Aug-26 20:33N 59°20' E 018°05'0 0.0
2015-Aug-26 19:34N 59°20' E 018°05'0 0.0
2015-Aug-26 18:34N 59°20' E 018°05'0 0.0
2015-Aug-26 17:34N 59°20' E 018°05'0 0.0
2015-Aug-26 16:33N 59°20' E 018°05'0 0.0
2015-Aug-26 15:33N 59°20' E 018°05'0 0.0
2015-Aug-26 14:33N 59°20' E 018°05'0 0.0
2015-Aug-26 13:33N 59°20' E 018°05'0 0.0
2015-Aug-26 12:32N 59°20' E 018°05'0 0.0
2015-Aug-26 11:30N 59°20' E 018°05'0 0.0
2015-Aug-26 10:33N 59°20' E 018°05'0 0.0
2015-Aug-26 09:26N 59°20' E 018°05'0 0.0
2015-Aug-26 08:17N 59°20' E 018°05'0 0.0
2015-Aug-26 07:23N 59°20' E 018°05'0 0.0
2015-Aug-26 06:32N 59°20' E 018°05'0 0.0
2015-Aug-26 05:33N 59°20' E 018°05'0 0.0
2015-Aug-26 04:33N 59°20' E 018°05'0 0.0
2015-Aug-26 03:32N 59°20' E 018°05'0 0.0
2015-Aug-26 02:34N 59°20' E 018°05'0 0.0
2015-Aug-26 01:34N 59°20' E 018°05'0 0.0
2015-Aug-26 00:33N 59°20' E 018°05'0 0.0
2015-Aug-25 23:33N 59°20' E 018°05'0 0.0
2015-Aug-25 22:33N 59°20' E 018°05'0 0.0
2015-Aug-25 21:34N 59°20' E 018°05'0 0.0
2015-Aug-25 20:34N 59°20' E 018°05'0 0.0
2015-Aug-25 19:34N 59°20' E 018°05'0 0.0
2015-Aug-25 18:34N 59°20' E 018°05'0 0.0
2015-Aug-25 17:33N 59°20' E 018°05'0 0.0
2015-Aug-25 16:33N 59°20' E 018°05'0 0.0
2015-Aug-25 15:33N 59°20' E 018°05'0 0.0
2015-Aug-25 14:34N 59°20' E 018°05'0 0.0
2015-Aug-25 13:33N 59°20' E 018°05'0 0.0
2015-Aug-25 12:34N 59°20' E 018°05'0 0.0
2015-Aug-25 11:33N 59°20' E 018°05'0 0.0
2015-Aug-25 10:34N 59°20' E 018°05'0 0.0
2015-Aug-25 09:06N 59°20' E 018°05'0 0.0
2015-Aug-25 08:34N 59°20' E 018°05'0 0.0
2015-Aug-25 06:22N 59°20' E 018°05'0 0.0
2015-Aug-25 05:34N 59°20' E 018°05'0 0.0
2015-Aug-25 04:34N 59°20' E 018°05'0 0.0
2015-Aug-25 03:34N 59°20' E 018°05'0 0.0
2015-Aug-25 02:34N 59°20' E 018°05'0 0.0
2015-Aug-25 01:33N 59°20' E 018°05'0 0.0
2015-Aug-25 00:34N 59°20' E 018°05'0 0.0
2015-Aug-24 23:33N 59°20' E 018°05'0 0.0
2015-Aug-24 22:34N 59°20' E 018°05'0 0.0
2015-Aug-24 21:34N 59°20' E 018°05'0 0.0
2015-Aug-24 20:33N 59°20' E 018°05'0 0.0
2015-Aug-24 19:33N 59°20' E 018°05'0 0.0
2015-Aug-24 18:27N 59°20' E 018°05'0 0.0
2015-Aug-24 17:31N 59°20' E 018°05'0 0.0
2015-Aug-24 16:32N 59°20' E 018°05'0 0.0
2015-Aug-24 15:32N 59°20' E 018°05'0 0.0
2015-Aug-24 14:32N 59°20' E 018°05'0 0.0
2015-Aug-24 13:33N 59°20' E 018°05'0 0.0
2015-Aug-24 12:33N 59°20' E 018°05'0 0.0
2015-Aug-24 10:33N 59°20' E 018°05'0 0.0
2015-Aug-24 09:33N 59°20' E 018°05'0 0.0
2015-Aug-24 07:33N 59°20' E 018°05'0 0.0
2015-Aug-24 06:33N 59°20' E 018°05'0 0.0
2015-Aug-24 05:26N 59°20' E 018°05'0 0.0
2015-Aug-24 04:34N 59°20' E 018°05'0 0.0
2015-Aug-24 03:34N 59°20' E 018°05'0 0.0
2015-Aug-24 02:33N 59°20' E 018°05'0 0.0
2015-Aug-24 01:33N 59°20' E 018°05'0 0.0
2015-Aug-24 00:33N 59°20' E 018°05'0 0.0
2015-Aug-23 23:33N 59°20' E 018°05'0 0.0
2015-Aug-23 22:33N 59°20' E 018°05'0 0.0
2015-Aug-23 21:33N 59°20' E 018°05'0 0.0
2015-Aug-23 20:33N 59°20' E 018°05'0 0.0
2015-Aug-23 19:33N 59°20' E 018°05'0 0.0
2015-Aug-23 18:33N 59°20' E 018°05'0 0.0
2015-Aug-23 17:33N 59°20' E 018°05'0 0.0
2015-Aug-23 16:33N 59°20' E 018°05'3 0.7
2015-Aug-23 11:24N 59°20' E 018°11'3 3.9
2015-Aug-23 10:32N 59°20' E 018°05'0 0.0
2015-Aug-23 09:04N 59°20' E 018°05'0 0.0
2015-Aug-23 07:28N 59°20' E 018°05'0 0.0
2015-Aug-22 18:32N 59°20' E 018°05'0 0.0
2015-Aug-22 17:33N 59°20' E 018°05'0 0.0
2015-Aug-22 16:33N 59°20' E 018°05'1 0.7
2015-Aug-22 15:33N 59°19' E 018°06'2 1.1
2015-Aug-22 13:32N 59°19' E 018°10'0 0.1
2015-Aug-22 08:16N 59°19' E 018°10'3 4.2
2015-Aug-22 07:33N 59°20' E 018°05'0 0.0
2015-Aug-22 06:33N 59°20' E 018°05'0 0.0
2015-Aug-22 05:33N 59°20' E 018°05'0 0.0
2015-Aug-22 04:33N 59°20' E 018°05'0 0.0
2015-Aug-22 03:33N 59°20' E 018°05'0 0.0
2015-Aug-22 02:33N 59°20' E 018°05'0 0.0
2015-Aug-22 01:33N 59°20' E 018°05'0 0.0
2015-Aug-22 00:33N 59°20' E 018°05'0 0.0
2015-Aug-21 23:33N 59°20' E 018°05'0 0.0
2015-Aug-21 22:33N 59°20' E 018°05'0 0.0
2015-Aug-21 21:33N 59°20' E 018°05'0 0.0
2015-Aug-21 20:33N 59°20' E 018°05'1 1.1
2015-Aug-21 19:33N 59°19' E 018°06'1 0.4
2015-Aug-21 16:33N 59°19' E 018°09'2 2.0
2015-Aug-21 15:25N 59°20' E 018°05'0 0.0
2015-Aug-21 14:26N 59°20' E 018°05'0 0.0
2015-Aug-21 13:30N 59°20' E 018°05'0 0.0
2015-Aug-21 12:08N 59°20' E 018°05'0 0.0
2015-Aug-21 11:09N 59°20' E 018°05'0 0.0
2015-Aug-21 10:33N 59°20' E 018°05'0 0.0
2015-Aug-21 09:33N 59°20' E 018°05'0 0.0
2015-Aug-21 08:30N 59°20' E 018°05'0 0.0
2015-Aug-21 07:27N 59°20' E 018°05'0 0.0
2015-Aug-21 06:31N 59°20' E 018°05'0 0.0
2015-Aug-21 05:33N 59°20' E 018°05'0 0.0
2015-Aug-21 04:33N 59°20' E 018°05'0 0.0
2015-Aug-21 03:33N 59°20' E 018°05'0 0.0
2015-Aug-21 02:33N 59°20' E 018°05'0 0.0
2015-Aug-21 01:33N 59°20' E 018°05'0 0.0
2015-Aug-21 00:33N 59°20' E 018°05'  
Track history (hours):
 
Tides and Currents Weather Stations Pressure Air Temp Water Temp Dewpoint Dewpoint Depression Visibility Wind Speed Wind Dir Waves Ship Positions

Norrskar

Last reported at 2015-Aug-31 00:33 UTC. Time now 2015-Aug-31 00:41 UTC.
Position N 59°20' E 018°05'.

Length 35 m; draft 3 m.

Type: Passenger vessel. MMSI: 265522430.

Date/timePositionNaut miles runAvg speedWind from/ knotsBaromVisibWave heightAir tempDewpointWater temp
2015-Aug-31 00:33N 59°20' E 018°05'0 0.0
2015-Aug-30 23:33N 59°20' E 018°05'0 0.0
2015-Aug-30 22:32N 59°20' E 018°05'0 0.0
2015-Aug-30 21:33N 59°20' E 018°05'0 0.0
2015-Aug-30 20:33N 59°20' E 018°05'0 0.0
2015-Aug-30 19:33N 59°20' E 018°05'0 0.0
2015-Aug-30 18:22N 59°20' E 018°05'0 0.0
2015-Aug-30 17:33N 59°20' E 018°05'0 0.0
2015-Aug-30 16:33N 59°20' E 018°05'3 0.6
2015-Aug-30 11:22N 59°19' E 018°10'3 3.3
2015-Aug-30 10:27N 59°20' E 018°05'0 0.0
2015-Aug-30 09:33N 59°20' E 018°05'0 0.0
2015-Aug-30 08:29N 59°20' E 018°05'0 0.0
2015-Aug-29 21:28N 59°20' E 018°05'0 0.0
2015-Aug-29 20:31N 59°20' E 018°05'0 0.0
2015-Aug-29 19:27N 59°20' E 018°05'0 0.0
2015-Aug-29 18:33N 59°20' E 018°05'0 0.0
2015-Aug-29 17:30N 59°20' E 018°05'0 0.0
2015-Aug-29 16:21N 59°20' E 018°05'0 0.0
2015-Aug-29 15:33N 59°20' E 018°05'3 1.3
2015-Aug-29 13:31N 59°19' E 018°10'1 0.2
2015-Aug-29 08:23N 59°20' E 018°11'3 3.9
2015-Aug-29 07:32N 59°20' E 018°05'0 0.0
2015-Aug-29 06:33N 59°20' E 018°05'0 0.0
2015-Aug-29 05:33N 59°20' E 018°05'0 0.0
2015-Aug-29 04:33N 59°20' E 018°05'0 0.0
2015-Aug-29 03:33N 59°20' E 018°05'0 0.0
2015-Aug-29 02:33N 59°20' E 018°05'0 0.0
2015-Aug-29 01:33N 59°20' E 018°05'0 0.0
2015-Aug-29 00:33N 59°20' E 018°05'0 0.0
2015-Aug-28 23:33N 59°20' E 018°05'0 0.0
2015-Aug-28 22:33N 59°20' E 018°05'0 0.0
2015-Aug-28 21:33N 59°20' E 018°05'0 0.0
2015-Aug-28 20:33N 59°20' E 018°05'3 2.7
2015-Aug-28 19:29N 59°19' E 018°10'1 0.2
2015-Aug-28 16:32N 59°19' E 018°09'2 2.4
2015-Aug-28 15:33N 59°20' E 018°05'0 0.0
2015-Aug-28 14:33N 59°20' E 018°05'0 0.0
2015-Aug-28 13:31N 59°20' E 018°05'0 0.0
2015-Aug-28 12:32N 59°20' E 018°05'0 0.0
2015-Aug-28 11:33N 59°20' E 018°05'0 0.0
2015-Aug-28 10:32N 59°20' E 018°05'0 0.0
2015-Aug-28 09:33N 59°20' E 018°05'0 0.0
2015-Aug-28 08:25N 59°20' E 018°05'0 0.0
2015-Aug-28 07:33N 59°20' E 018°05'0 0.0
2015-Aug-28 06:11N 59°20' E 018°05'0 0.0
2015-Aug-28 05:27N 59°20' E 018°05'0 0.0
2015-Aug-28 04:33N 59°20' E 018°05'0 0.0
2015-Aug-28 03:20N 59°20' E 018°05'0 0.0
2015-Aug-28 00:22N 59°20' E 018°05'0 0.0
2015-Aug-27 23:25N 59°20' E 018°05'0 0.0
2015-Aug-27 21:22N 59°20' E 018°05'0 0.0
2015-Aug-27 20:24N 59°20' E 018°05'2 2.6
2015-Aug-27 19:33N 59°19' E 018°09'0 0.1
2015-Aug-27 16:33N 59°19' E 018°09'2 2.4
2015-Aug-27 15:31N 59°20' E 018°05'0 0.0
2015-Aug-27 14:34N 59°20' E 018°05'0 0.0
2015-Aug-27 13:33N 59°20' E 018°05'0 0.0
2015-Aug-27 12:32N 59°20' E 018°05'0 0.0
2015-Aug-27 10:26N 59°20' E 018°05'0 0.0
2015-Aug-27 09:34N 59°20' E 018°05'0 0.0
2015-Aug-27 08:33N 59°20' E 018°05'0 0.0
2015-Aug-27 07:08N 59°20' E 018°05'0 0.0
2015-Aug-27 06:27N 59°20' E 018°05'0 0.0
2015-Aug-27 05:31N 59°20' E 018°05'0 0.0
2015-Aug-27 04:32N 59°20' E 018°05'0 0.0
2015-Aug-27 03:32N 59°20' E 018°05'0 0.0
2015-Aug-27 01:31N 59°20' E 018°05'0 0.0
2015-Aug-26 21:20N 59°20' E 018°05'0 0.0
2015-Aug-26 20:33N 59°20' E 018°05'0 0.0
2015-Aug-26 19:34N 59°20' E 018°05'0 0.0
2015-Aug-26 18:34N 59°20' E 018°05'0 0.0
2015-Aug-26 17:34N 59°20' E 018°05'0 0.0
2015-Aug-26 16:33N 59°20' E 018°05'0 0.0
2015-Aug-26 15:33N 59°20' E 018°05'0 0.0
2015-Aug-26 14:33N 59°20' E 018°05'0 0.0
2015-Aug-26 13:33N 59°20' E 018°05'0 0.0
2015-Aug-26 12:32N 59°20' E 018°05'0 0.0
2015-Aug-26 11:30N 59°20' E 018°05'0 0.0
2015-Aug-26 10:33N 59°20' E 018°05'0 0.0
2015-Aug-26 09:26N 59°20' E 018°05'0 0.0
2015-Aug-26 08:17N 59°20' E 018°05'0 0.0
2015-Aug-26 07:23N 59°20' E 018°05'0 0.0
2015-Aug-26 06:32N 59°20' E 018°05'0 0.0
2015-Aug-26 05:33N 59°20' E 018°05'0 0.0
2015-Aug-26 04:33N 59°20' E 018°05'0 0.0
2015-Aug-26 03:32N 59°20' E 018°05'0 0.0
2015-Aug-26 02:34N 59°20' E 018°05'0 0.0
2015-Aug-26 01:34N 59°20' E 018°05'0 0.0
2015-Aug-26 00:33N 59°20' E 018°05'0 0.0
2015-Aug-25 23:33N 59°20' E 018°05'0 0.0
2015-Aug-25 22:33N 59°20' E 018°05'0 0.0
2015-Aug-25 21:34N 59°20' E 018°05'0 0.0
2015-Aug-25 20:34N 59°20' E 018°05'0 0.0
2015-Aug-25 19:34N 59°20' E 018°05'0 0.0
2015-Aug-25 18:34N 59°20' E 018°05'0 0.0
2015-Aug-25 17:33N 59°20' E 018°05'0 0.0
2015-Aug-25 16:33N 59°20' E 018°05'0 0.0
2015-Aug-25 15:33N 59°20' E 018°05'0 0.0
2015-Aug-25 14:34N 59°20' E 018°05'0 0.0
2015-Aug-25 13:33N 59°20' E 018°05'0 0.0
2015-Aug-25 12:34N 59°20' E 018°05'0 0.0
2015-Aug-25 11:33N 59°20' E 018°05'0 0.0
2015-Aug-25 10:34N 59°20' E 018°05'0 0.0
2015-Aug-25 09:06N 59°20' E 018°05'0 0.0
2015-Aug-25 08:34N 59°20' E 018°05'0 0.0
2015-Aug-25 06:22N 59°20' E 018°05'0 0.0
2015-Aug-25 05:34N 59°20' E 018°05'0 0.0
2015-Aug-25 04:34N 59°20' E 018°05'0 0.0
2015-Aug-25 03:34N 59°20' E 018°05'0 0.0
2015-Aug-25 02:34N 59°20' E 018°05'0 0.0
2015-Aug-25 01:33N 59°20' E 018°05'0 0.0
2015-Aug-25 00:34N 59°20' E 018°05'0 0.0
2015-Aug-24 23:33N 59°20' E 018°05'0 0.0
2015-Aug-24 22:34N 59°20' E 018°05'0 0.0
2015-Aug-24 21:34N 59°20' E 018°05'0 0.0
2015-Aug-24 20:33N 59°20' E 018°05'0 0.0
2015-Aug-24 19:33N 59°20' E 018°05'0 0.0
2015-Aug-24 18:27N 59°20' E 018°05'0 0.0
2015-Aug-24 17:31N 59°20' E 018°05'0 0.0
2015-Aug-24 16:32N 59°20' E 018°05'0 0.0
2015-Aug-24 15:32N 59°20' E 018°05'0 0.0
2015-Aug-24 14:32N 59°20' E 018°05'0 0.0
2015-Aug-24 13:33N 59°20' E 018°05'0 0.0
2015-Aug-24 12:33N 59°20' E 018°05'0 0.0
2015-Aug-24 10:33N 59°20' E 018°05'0 0.0
2015-Aug-24 09:33N 59°20' E 018°05'0 0.0
2015-Aug-24 07:33N 59°20' E 018°05'0 0.0
2015-Aug-24 06:33N 59°20' E 018°05'0 0.0
2015-Aug-24 05:26N 59°20' E 018°05'0 0.0
2015-Aug-24 04:34N 59°20' E 018°05'0 0.0
2015-Aug-24 03:34N 59°20' E 018°05'0 0.0
2015-Aug-24 02:33N 59°20' E 018°05'0 0.0
2015-Aug-24 01:33N 59°20' E 018°05'0 0.0
2015-Aug-24 00:33N 59°20' E 018°05'0 0.0
2015-Aug-23 23:33N 59°20' E 018°05'0 0.0
2015-Aug-23 22:33N 59°20' E 018°05'0 0.0
2015-Aug-23 21:33N 59°20' E 018°05'0 0.0
2015-Aug-23 20:33N 59°20' E 018°05'0 0.0
2015-Aug-23 19:33N 59°20' E 018°05'0 0.0
2015-Aug-23 18:33N 59°20' E 018°05'0 0.0
2015-Aug-23 17:33N 59°20' E 018°05'0 0.0
2015-Aug-23 16:33N 59°20' E 018°05'3 0.7
2015-Aug-23 11:24N 59°20' E 018°11'3 3.9
2015-Aug-23 10:32N 59°20' E 018°05'0 0.0
2015-Aug-23 09:04N 59°20' E 018°05'0 0.0
2015-Aug-23 07:28N 59°20' E 018°05'0 0.0
2015-Aug-22 18:32N 59°20' E 018°05'0 0.0
2015-Aug-22 17:33N 59°20' E 018°05'0 0.0
2015-Aug-22 16:33N 59°20' E 018°05'1 0.7
2015-Aug-22 15:33N 59°19' E 018°06'2 1.1
2015-Aug-22 13:32N 59°19' E 018°10'0 0.1
2015-Aug-22 08:16N 59°19' E 018°10'3 4.2
2015-Aug-22 07:33N 59°20' E 018°05'0 0.0
2015-Aug-22 06:33N 59°20' E 018°05'0 0.0
2015-Aug-22 05:33N 59°20' E 018°05'0 0.0
2015-Aug-22 04:33N 59°20' E 018°05'0 0.0
2015-Aug-22 03:33N 59°20' E 018°05'0 0.0
2015-Aug-22 02:33N 59°20' E 018°05'0 0.0
2015-Aug-22 01:33N 59°20' E 018°05'0 0.0
2015-Aug-22 00:33N 59°20' E 018°05'0 0.0
2015-Aug-21 23:33N 59°20' E 018°05'0 0.0
2015-Aug-21 22:33N 59°20' E 018°05'0 0.0
2015-Aug-21 21:33N 59°20' E 018°05'0 0.0
2015-Aug-21 20:33N 59°20' E 018°05'1 1.1
2015-Aug-21 19:33N 59°19' E 018°06'1 0.4
2015-Aug-21 16:33N 59°19' E 018°09'2 2.0
2015-Aug-21 15:25N 59°20' E 018°05'0 0.0
2015-Aug-21 14:26N 59°20' E 018°05'0 0.0
2015-Aug-21 13:30N 59°20' E 018°05'0 0.0
2015-Aug-21 12:08N 59°20' E 018°05'0 0.0
2015-Aug-21 11:09N 59°20' E 018°05'0 0.0
2015-Aug-21 10:33N 59°20' E 018°05'0 0.0
2015-Aug-21 09:33N 59°20' E 018°05'0 0.0
2015-Aug-21 08:30N 59°20' E 018°05'0 0.0
2015-Aug-21 07:27N 59°20' E 018°05'0 0.0
2015-Aug-21 06:31N 59°20' E 018°05'0 0.0
2015-Aug-21 05:33N 59°20' E 018°05'0 0.0
2015-Aug-21 04:33N 59°20' E 018°05'0 0.0
2015-Aug-21 03:33N 59°20' E 018°05'0 0.0
2015-Aug-21 02:33N 59°20' E 018°05'0 0.0
2015-Aug-21 01:33N 59°20' E 018°05'0 0.0
2015-Aug-21 00:33N 59°20' E 018°05'  

Dump ship's entire track history